createdAt,value
2017-12-23T10:48:46.939Z,28.3
2017-12-23T10:59:02.647Z,44
2017-12-23T11:09:17.127Z,46.4
2017-12-23T11:19:31.298Z,49.1
2017-12-23T11:29:45.800Z,52.3
2017-12-23T11:40:00.382Z,55.1
2017-12-23T11:50:15.030Z,56.4
2017-12-23T12:00:29.729Z,59.7
2017-12-23T12:10:45.044Z,61.3
2017-12-23T12:20:59.647Z,64.1
2017-12-23T12:31:14.431Z,64.8
2017-12-23T12:41:28.188Z,65.7
2017-12-23T12:51:43.185Z,66
2017-12-23T13:01:58.535Z,66.9
2017-12-23T13:12:12.327Z,67.2
2017-12-23T13:22:26.488Z,66.9
2017-12-23T13:32:41.078Z,69.1
2017-12-23T13:42:55.132Z,70.8
2017-12-23T13:53:10.485Z,71.9
2017-12-23T14:03:25.082Z,73.6
2017-12-23T14:13:38.867Z,74.1
2017-12-23T14:23:52.976Z,74.6
2017-12-23T14:34:07.036Z,73.7
2017-12-23T14:44:22.614Z,73.2
2017-12-23T14:54:38.190Z,70.7
2017-12-23T15:04:53.301Z,69.6
2017-12-23T15:15:08.700Z,71
2017-12-23T15:25:23.438Z,69.2
2017-12-23T15:35:38.855Z,68
2017-12-23T15:45:53.678Z,69.4
2017-12-23T15:56:08.446Z,67.8
2017-12-23T16:06:23.137Z,67.7
2017-12-23T16:16:38.086Z,67.7
2017-12-23T16:26:52.045Z,66.8
2017-12-23T16:37:05.765Z,67.2
2017-12-23T16:47:19.492Z,66.1
2017-12-23T16:57:33.317Z,67.9
2017-12-23T17:07:47.091Z,69.7
2017-12-23T17:18:01.128Z,68
2017-12-23T17:28:16.460Z,65.8
2017-12-23T17:38:31.185Z,64.2
2017-12-23T17:48:46.126Z,62.8
2017-12-23T17:59:01.106Z,61.5
2017-12-23T18:09:15.803Z,59.3
2017-12-23T18:19:31.096Z,57
2017-12-23T18:29:45.647Z,54.9
2017-12-23T18:40:00.876Z,53.4
2017-12-23T18:50:16.208Z,49.3
2017-12-23T19:00:31.780Z,46.2
2017-12-23T19:10:46.431Z,44.6
2017-12-23T19:21:00.823Z,40.9
2017-12-23T19:31:15.311Z,39.2
2017-12-23T19:41:29.294Z,39
2017-12-23T19:51:43.269Z,39.1
2017-12-23T20:01:58.740Z,39.9
2017-12-23T20:12:13.532Z,41.1
2017-12-23T20:22:28.445Z,40.9
2017-12-23T20:32:43.660Z,39
2017-12-23T20:42:59.162Z,40.5
2017-12-23T20:53:14.157Z,43.9
2017-12-23T21:03:29.196Z,45.8
2017-12-23T21:13:43.876Z,48.4
2017-12-23T21:23:58.605Z,51.3
2017-12-23T21:34:12.977Z,54.9
2017-12-23T21:44:28.326Z,57.5
2017-12-23T21:54:43.190Z,60.2
2017-12-23T22:04:57.379Z,61.7
2017-12-23T22:15:13.045Z,65.3
2017-12-23T22:25:28.325Z,69.2
2017-12-23T22:35:43.866Z,71.8
2017-12-23T22:45:59.169Z,72.2
2017-12-23T22:56:13.732Z,73.8
2017-12-23T23:06:27.624Z,75.8
2017-12-23T23:16:42.356Z,75.9
2017-12-23T23:26:57.396Z,76.8
2017-12-23T23:37:11.258Z,79.4
2017-12-23T23:47:25.855Z,80.7
2017-12-23T23:57:39.692Z,80.6
